Philmont, New Mexico
Current Conditions -  °F | °C
As of 10:55 PM on Saturday 25 Oct 2014 (Local Time) from KAXX Reporting Station
Clear Clear  
Wind Chill: 44°   Ceiling: Unl
Heat Index: 44°   Visibility: 10mi
Dew Point: 24°   Wind: 3mph
Humidity: 46%   Direction: 100°E
Pressure: 30.33"   Gusts: NA
Location:  36.5757°N, 105.05°W
Report Text: KAXX 260455Z AUTO 10003KT 10SM CLR 06/M05 A3033 RMK AO2 T00641046
Loading
Personal Weather Stations






























Interactive Weather Map
Tropical Storm Tracking
New forecast layout! Learn more

10-Day Weather Forecast

Advertisements
Track Severe Weather on mobile